createdAt,value
2017-10-14T00:02:01.320Z,96.40
2017-10-14T00:04:29.171Z,96.40
2017-10-14T00:06:57.138Z,96.90
2017-10-14T00:09:24.981Z,96.60
2017-10-14T00:11:52.958Z,97.00
2017-10-14T00:14:20.825Z,97.00
2017-10-14T00:16:48.688Z,96.80
2017-10-14T00:19:16.437Z,97.30
2017-10-14T00:21:44.624Z,97.30
2017-10-14T00:24:12.673Z,97.30
2017-10-14T00:26:40.489Z,97.30
2017-10-14T00:29:08.441Z,97.30
2017-10-14T00:31:36.210Z,97.10
2017-10-14T00:34:04.182Z,97.10
2017-10-14T00:36:32.150Z,96.90
2017-10-14T00:39:00.828Z,97.20
2017-10-14T00:41:28.690Z,96.90
2017-10-14T00:43:56.467Z,96.90
2017-10-14T00:46:24.309Z,97.30
2017-10-14T00:48:52.094Z,98.00
2017-10-14T00:51:20.183Z,98.40
2017-10-14T00:53:48.014Z,98.10
2017-10-14T00:56:16.081Z,97.70
2017-10-14T00:58:44.153Z,97.40
2017-10-14T01:01:12.105Z,97.30
2017-10-14T01:03:40.215Z,97.20
2017-10-14T01:06:08.268Z,97.70
2017-10-14T01:08:36.157Z,98.90
2017-10-14T01:11:04.124Z,99.40
2017-10-14T01:13:32.189Z,99.90
2017-10-14T01:15:59.975Z,99.90
2017-10-14T01:18:28.748Z,99.90
2017-10-14T01:20:56.622Z,99.90
2017-10-14T01:23:24.561Z,99.90
2017-10-14T01:25:52.629Z,99.90
2017-10-14T01:28:20.702Z,99.90
2017-10-14T01:30:48.589Z,99.90
2017-10-14T01:33:16.640Z,99.90
2017-10-14T01:35:44.608Z,99.90
2017-10-14T01:38:12.580Z,99.90
2017-10-14T01:40:40.767Z,99.90
2017-10-14T01:43:08.627Z,99.90
2017-10-14T01:45:36.583Z,99.90
2017-10-14T01:48:04.447Z,99.90
2017-10-14T01:50:32.519Z,99.90
2017-10-14T01:53:00.492Z,99.90
2017-10-14T01:55:28.564Z,99.90
2017-10-14T01:57:56.456Z,99.90
2017-10-14T02:00:24.331Z,99.90
2017-10-14T02:02:52.265Z,99.90
2017-10-14T02:05:20.256Z,99.90
2017-10-14T02:07:48.119Z,99.90
2017-10-14T02:10:16.098Z,99.90
2017-10-14T02:12:44.035Z,99.90
2017-10-14T02:15:11.931Z,99.90
2017-10-14T02:17:39.703Z,99.90
2017-10-14T02:20:07.550Z,99.90
2017-10-14T02:22:35.394Z,99.90
2017-10-14T02:25:03.268Z,99.90
2017-10-14T02:27:31.148Z,99.90
2017-10-14T02:29:58.935Z,99.90
2017-10-14T02:32:26.687Z,99.90
2017-10-14T02:34:54.527Z,99.90
2017-10-14T02:37:22.398Z,99.90
2017-10-14T02:39:50.146Z,99.90
2017-10-14T02:42:18.147Z,99.90
2017-10-14T02:44:47.016Z,99.90
2017-10-14T02:47:14.780Z,99.90
2017-10-14T02:49:42.573Z,99.90
2017-10-14T02:52:11.961Z,99.90
2017-10-14T02:54:39.735Z,99.90
2017-10-14T02:57:07.786Z,99.90
2017-10-14T02:59:35.546Z,99.90
2017-10-14T03:02:03.515Z,99.90
2017-10-14T03:04:31.381Z,99.90
2017-10-14T03:06:59.250Z,99.90
2017-10-14T03:09:27.134Z,99.90
2017-10-14T03:11:54.884Z,99.90
2017-10-14T03:14:22.742Z,99.90
2017-10-14T03:16:50.530Z,99.90
2017-10-14T03:19:18.480Z,99.90
2017-10-14T03:21:46.358Z,99.90
2017-10-14T03:24:14.231Z,99.90
2017-10-14T03:26:42.093Z,99.90
2017-10-14T03:29:09.943Z,99.90
2017-10-14T03:31:37.812Z,99.90
2017-10-14T03:34:05.579Z,99.90
2017-10-14T03:36:33.325Z,99.90
2017-10-14T03:39:01.116Z,99.90
2017-10-14T03:41:28.846Z,99.90
2017-10-14T03:43:56.652Z,99.90
2017-10-14T03:46:24.397Z,99.90
2017-10-14T03:48:52.186Z,99.90
2017-10-14T03:51:20.148Z,99.90
2017-10-14T03:53:47.919Z,99.90
2017-10-14T03:56:15.775Z,99.90
2017-10-14T03:58:43.637Z,99.90
2017-10-14T04:01:11.718Z,99.90
2017-10-14T04:03:39.586Z,99.90
2017-10-14T04:06:07.446Z,99.90
2017-10-14T04:08:35.912Z,99.90
2017-10-14T04:11:03.778Z,99.90
2017-10-14T04:13:31.640Z,99.90
2017-10-14T04:15:59.609Z,99.90
2017-10-14T04:18:27.476Z,99.90
2017-10-14T04:20:55.256Z,99.90
2017-10-14T04:23:23.739Z,99.90
2017-10-14T04:25:51.693Z,99.90
2017-10-14T04:28:19.478Z,99.90
2017-10-14T04:30:48.009Z,99.90
2017-10-14T04:33:15.801Z,99.90
2017-10-14T04:38:17.782Z,99.90
2017-10-14T04:40:45.748Z,99.90
2017-10-14T04:43:13.737Z,99.90
2017-10-14T04:45:41.500Z,99.90
2017-10-14T04:48:09.251Z,99.90
2017-10-14T04:50:36.997Z,99.90
2017-10-14T04:53:04.892Z,99.90
2017-10-14T04:55:32.668Z,99.90
2017-10-14T04:58:00.636Z,99.90
2017-10-14T05:00:28.406Z,99.90
2017-10-14T05:02:56.262Z,99.90
2017-10-14T05:05:24.125Z,99.90
2017-10-14T05:07:53.531Z,99.90
2017-10-14T05:10:21.376Z,99.90
2017-10-14T05:12:49.341Z,99.90
2017-10-14T05:15:17.313Z,99.90
2017-10-14T05:17:45.093Z,99.90
2017-10-14T05:20:12.951Z,99.90
2017-10-14T05:22:40.742Z,99.90
2017-10-14T05:25:08.532Z,99.90
2017-10-14T05:27:36.357Z,99.90
2017-10-14T05:30:04.320Z,99.90
2017-10-14T05:32:32.174Z,99.90
2017-10-14T05:35:00.059Z,99.90
2017-10-14T05:37:28.115Z,99.90
2017-10-14T05:39:56.100Z,99.90
2017-10-14T05:42:24.744Z,99.90
2017-10-14T05:44:52.547Z,99.90
2017-10-14T05:47:21.937Z,99.90
2017-10-14T05:49:49.716Z,99.90
2017-10-14T05:52:17.560Z,99.90
2017-10-14T05:54:45.341Z,99.90
2017-10-14T05:57:13.117Z,99.90
2017-10-14T05:59:40.884Z,99.90
2017-10-14T06:02:08.674Z,99.90
2017-10-14T06:04:37.312Z,99.90
2017-10-14T06:07:12.260Z,99.90
2017-10-14T06:09:40.119Z,99.90
2017-10-14T06:12:07.836Z,99.90
2017-10-14T06:14:35.645Z,99.90
2017-10-14T06:17:03.598Z,99.90
2017-10-14T06:19:31.387Z,99.90
2017-10-14T06:21:59.215Z,99.90
2017-10-14T06:24:27.093Z,99.90
2017-10-14T06:26:54.926Z,99.90
2017-10-14T06:29:22.666Z,99.90
2017-10-14T06:31:51.222Z,99.90
2017-10-14T06:34:19.112Z,99.90
2017-10-14T06:36:46.957Z,99.90
2017-10-14T06:39:15.155Z,99.90
2017-10-14T06:41:43.814Z,99.90
2017-10-14T06:44:11.674Z,99.90
2017-10-14T06:46:39.865Z,99.90
2017-10-14T06:49:08.344Z,99.90
2017-10-14T06:51:36.147Z,99.90
2017-10-14T06:54:04.702Z,99.90
2017-10-14T06:56:32.599Z,99.90
2017-10-14T06:59:00.426Z,99.90
2017-10-14T07:01:28.292Z,99.90
2017-10-14T07:03:56.201Z,99.90
2017-10-14T07:06:24.219Z,99.90
2017-10-14T07:08:52.047Z,99.90
2017-10-14T07:11:19.958Z,99.90
2017-10-14T07:13:48.647Z,99.70
2017-10-14T07:16:16.592Z,99.70
2017-10-14T07:18:44.453Z,99.40
2017-10-14T07:21:13.289Z,99.80
2017-10-14T07:23:41.847Z,95.90
2017-10-14T07:26:09.920Z,95.60
2017-10-14T07:28:38.295Z,93.90
2017-10-14T07:31:06.055Z,93.40
2017-10-14T07:33:33.919Z,92.10
2017-10-14T07:36:01.688Z,92.20
2017-10-14T07:38:29.460Z,91.90
2017-10-14T07:40:58.143Z,91.20
2017-10-14T07:43:26.194Z,91.20
2017-10-14T07:45:54.182Z,90.70
2017-10-14T07:48:22.341Z,90.30
2017-10-14T07:50:50.223Z,90.90
2017-10-14T07:53:18.084Z,90.60
2017-10-14T07:55:46.059Z,90.60
2017-10-14T07:58:13.833Z,91.00
2017-10-14T08:00:42.373Z,90.60
2017-10-14T08:03:10.278Z,90.30
2017-10-14T08:05:38.016Z,92.00
2017-10-14T08:08:06.002Z,90.30
2017-10-14T08:10:33.871Z,90.50
2017-10-14T08:13:01.844Z,90.10
2017-10-14T08:15:30.382Z,90.40
2017-10-14T08:17:58.147Z,90.40
2017-10-14T08:20:25.898Z,92.70
2017-10-14T08:22:53.690Z,91.00
2017-10-14T08:25:21.441Z,92.10
2017-10-14T08:27:49.333Z,93.10
2017-10-14T08:30:17.088Z,94.40
2017-10-14T08:32:44.921Z,94.50
2017-10-14T08:35:12.858Z,95.40
2017-10-14T08:37:40.661Z,96.40
2017-10-14T08:40:08.416Z,96.20
2017-10-14T08:42:37.038Z,96.90
2017-10-14T08:45:05.007Z,96.90
2017-10-14T08:47:32.760Z,97.30
2017-10-14T08:50:00.636Z,97.50
2017-10-14T08:52:28.435Z,97.10
2017-10-14T08:54:56.708Z,97.40
2017-10-14T08:57:24.551Z,97.30
2017-10-14T08:59:52.529Z,96.40
2017-10-14T09:02:20.297Z,97.00
2017-10-14T09:04:48.159Z,97.60
2017-10-14T09:07:16.138Z,97.60
2017-10-14T09:09:44.102Z,97.10
2017-10-14T09:12:11.837Z,97.20
2017-10-14T09:14:39.710Z,96.70
2017-10-14T09:17:07.542Z,96.50
2017-10-14T09:19:35.338Z,97.50
2017-10-14T09:22:03.337Z,96.80
2017-10-14T09:24:31.483Z,97.00
2017-10-14T09:26:59.299Z,96.60
2017-10-14T09:29:28.044Z,96.80
2017-10-14T09:31:56.031Z,96.80
2017-10-14T09:34:24.003Z,97.60
2017-10-14T09:36:51.796Z,96.80
2017-10-14T09:39:19.945Z,96.30
2017-10-14T09:41:47.682Z,96.20
2017-10-14T09:44:16.160Z,96.50
2017-10-14T09:46:44.832Z,96.50
2017-10-14T09:49:12.790Z,95.90
2017-10-14T09:51:40.560Z,96.20
2017-10-14T09:54:08.305Z,95.80
2017-10-14T09:56:36.317Z,95.50
2017-10-14T09:59:04.390Z,95.80
2017-10-14T10:01:32.273Z,95.90
2017-10-14T10:04:00.323Z,95.20
2017-10-14T10:06:28.395Z,95.10
2017-10-14T10:08:56.260Z,95.30
2017-10-14T10:11:24.348Z,94.50
2017-10-14T10:13:52.218Z,94.20
2017-10-14T10:16:20.188Z,94.60
2017-10-14T10:18:48.270Z,95.20
2017-10-14T10:21:16.202Z,95.10
2017-10-14T10:23:44.279Z,95.00
2017-10-14T10:26:12.070Z,95.30
2017-10-14T10:28:40.038Z,95.70
2017-10-14T10:31:07.928Z,96.00
2017-10-14T10:33:36.593Z,95.80
2017-10-14T10:36:04.460Z,95.80
2017-10-14T10:38:32.515Z,96.20
2017-10-14T10:41:00.279Z,96.30
2017-10-14T10:43:28.137Z,95.90
2017-10-14T10:45:55.998Z,95.80
2017-10-14T10:48:23.781Z,95.90
2017-10-14T10:50:51.542Z,96.20
2017-10-14T10:53:19.406Z,96.90
2017-10-14T10:55:47.294Z,96.90
2017-10-14T10:58:15.143Z,97.70
2017-10-14T11:00:43.016Z,97.30
2017-10-14T11:03:10.779Z,97.30
2017-10-14T11:05:38.531Z,97.60
2017-10-14T11:08:06.390Z,97.50
2017-10-14T11:10:34.186Z,97.80
2017-10-14T11:13:02.124Z,97.30
2017-10-14T11:15:29.904Z,97.30
2017-10-14T11:17:57.769Z,97.10
2017-10-14T11:20:25.604Z,97.50
2017-10-14T11:22:53.351Z,97.60
2017-10-14T11:25:21.286Z,97.80
2017-10-14T11:27:49.044Z,97.00
2017-10-14T11:30:16.915Z,97.70
2017-10-14T11:32:45.381Z,97.80
2017-10-14T11:35:13.266Z,97.10
2017-10-14T11:37:41.195Z,97.30
2017-10-14T11:40:09.192Z,97.80
2017-10-14T11:42:37.469Z,97.00
2017-10-14T11:45:05.310Z,97.50
2017-10-14T11:47:33.192Z,97.20
2017-10-14T11:50:00.968Z,97.10
2017-10-14T11:52:28.730Z,97.40
2017-10-14T11:54:56.582Z,97.50
2017-10-14T11:57:24.451Z,97.00
2017-10-14T11:59:53.148Z,97.50
2017-10-14T12:02:20.976Z,97.00
2017-10-14T12:04:48.739Z,96.70
2017-10-14T12:07:16.552Z,96.90
2017-10-14T12:09:44.491Z,96.80
2017-10-14T12:12:12.384Z,96.80
2017-10-14T12:14:40.241Z,96.50
2017-10-14T12:17:08.189Z,96.50
2017-10-14T12:19:36.156Z,96.20
2017-10-14T12:22:04.140Z,95.80
2017-10-14T12:24:32.097Z,96.40
2017-10-14T12:26:59.877Z,95.60
2017-10-14T12:29:27.845Z,95.50
2017-10-14T12:31:55.607Z,95.50
2017-10-14T12:34:23.377Z,94.80
2017-10-14T12:36:51.240Z,94.50
2017-10-14T12:39:19.725Z,94.60
2017-10-14T12:41:47.579Z,93.90
2017-10-14T12:44:15.539Z,94.30
2017-10-14T12:46:43.395Z,94.70
2017-10-14T12:49:11.290Z,94.40
2017-10-14T12:51:39.030Z,93.80
2017-10-14T12:54:07.004Z,94.70
2017-10-14T12:56:35.002Z,94.40
2017-10-14T12:59:02.859Z,94.00
2017-10-14T13:01:30.723Z,94.50
2017-10-14T13:04:00.007Z,93.40
2017-10-14T13:06:27.883Z,93.40
2017-10-14T13:08:55.959Z,93.30
2017-10-14T13:11:23.931Z,93.30
2017-10-14T13:13:51.812Z,93.30
2017-10-14T13:16:20.475Z,92.50
2017-10-14T13:18:48.255Z,91.50
2017-10-14T13:21:16.096Z,91.00
2017-10-14T13:23:44.810Z,91.20
2017-10-14T13:26:12.751Z,90.10
2017-10-14T13:28:40.525Z,87.90
2017-10-14T13:31:08.400Z,87.80
2017-10-14T13:33:36.378Z,85.90
2017-10-14T13:36:04.195Z,85.80
2017-10-14T13:38:32.098Z,87.60
2017-10-14T13:40:59.937Z,87.60
2017-10-14T13:43:27.956Z,87.50
2017-10-14T13:45:56.645Z,87.70
2017-10-14T13:48:25.191Z,87.80
2017-10-14T13:50:53.166Z,87.80
2017-10-14T13:53:21.026Z,87.30
2017-10-14T13:55:48.817Z,86.90
2017-10-14T13:58:16.676Z,86.70
2017-10-14T14:00:44.725Z,85.20
2017-10-14T14:03:12.592Z,84.80
2017-10-14T14:05:40.476Z,85.60
2017-10-14T14:08:08.343Z,87.40
2017-10-14T14:10:36.760Z,86.60
2017-10-14T14:13:05.391Z,86.30
2017-10-14T14:15:33.265Z,84.70
2017-10-14T14:18:01.142Z,83.30
2017-10-14T14:20:28.899Z,83.90
2017-10-14T14:22:56.668Z,81.30
2017-10-14T14:25:24.604Z,81.60
2017-10-14T14:27:52.425Z,81.10
2017-10-14T14:30:21.804Z,80.90
2017-10-14T14:32:49.665Z,80.90
2017-10-14T14:35:17.623Z,82.10
2017-10-14T14:37:45.616Z,80.90
2017-10-14T14:40:13.480Z,81.30
2017-10-14T14:42:41.345Z,80.90
2017-10-14T14:45:09.217Z,81.30
2017-10-14T14:47:37.110Z,79.20
2017-10-14T14:50:05.660Z,80.30
2017-10-14T14:52:33.639Z,80.30
2017-10-14T14:55:01.493Z,78.40
2017-10-14T14:57:30.177Z,79.60
2017-10-14T14:59:58.156Z,78.90
2017-10-14T15:02:25.996Z,77.20
2017-10-14T15:04:55.515Z,76.10
2017-10-14T15:07:23.495Z,76.10
2017-10-14T15:09:51.457Z,75.60
2017-10-14T15:12:20.024Z,74.50
2017-10-14T15:14:48.406Z,76.90
2017-10-14T15:17:16.794Z,76.90
2017-10-14T15:19:45.842Z,75.80
2017-10-14T15:22:14.182Z,75.30
2017-10-14T15:24:43.615Z,72.00
2017-10-14T15:27:11.950Z,71.90
2017-10-14T15:29:41.069Z,73.30
2017-10-14T15:32:10.029Z,71.80
2017-10-14T15:34:38.194Z,71.70
2017-10-14T15:37:06.195Z,69.70
2017-10-14T15:39:35.151Z,73.70
2017-10-14T15:42:03.123Z,73.60
2017-10-14T15:44:31.091Z,77.00
2017-10-14T15:47:00.086Z,77.00
2017-10-14T15:49:28.199Z,77.20
2017-10-14T15:51:56.844Z,76.30
2017-10-14T15:54:25.025Z,76.40
2017-10-14T15:56:53.190Z,76.60
2017-10-14T15:59:21.402Z,76.40
2017-10-14T16:01:50.195Z,77.40
2017-10-14T16:04:19.055Z,80.00
2017-10-14T16:06:47.149Z,80.00
2017-10-14T16:09:15.941Z,86.20
2017-10-14T16:11:44.795Z,89.30
2017-10-14T16:14:12.768Z,89.20
2017-10-14T16:16:40.580Z,90.40
2017-10-14T16:19:08.717Z,91.10
2017-10-14T16:21:36.530Z,91.00
2017-10-14T16:24:06.996Z,91.70
2017-10-14T16:26:34.858Z,92.60
2017-10-14T16:29:02.962Z,93.30
2017-10-14T16:31:31.938Z,95.10
2017-10-14T16:33:59.924Z,95.10
2017-10-14T16:36:27.797Z,95.90
2017-10-14T16:38:56.560Z,96.80
2017-10-14T16:41:24.350Z,96.80
2017-10-14T16:43:52.300Z,97.00
2017-10-14T16:46:20.172Z,97.20
2017-10-14T16:48:47.931Z,97.70
2017-10-14T16:51:15.698Z,98.30
2017-10-14T16:53:43.565Z,99.00
2017-10-14T16:56:11.466Z,99.20
2017-10-14T16:58:40.220Z,99.50
2017-10-14T17:01:08.035Z,99.60
2017-10-14T17:03:35.829Z,99.90
2017-10-14T17:06:03.709Z,99.90
2017-10-14T17:11:25.564Z,99.90
2017-10-14T17:13:54.122Z,99.90
2017-10-14T17:16:23.214Z,99.90
2017-10-14T17:18:51.186Z,99.90
2017-10-14T17:21:18.996Z,99.90
2017-10-14T17:23:47.632Z,99.50
2017-10-14T17:26:15.377Z,99.50
2017-10-14T17:28:43.926Z,99.50
2017-10-14T17:31:12.592Z,98.60
2017-10-14T17:33:40.464Z,98.60
2017-10-14T17:36:08.314Z,98.20
2017-10-14T17:38:36.078Z,98.10
2017-10-14T17:41:04.046Z,98.10
2017-10-14T17:43:31.818Z,98.40
2017-10-14T17:45:59.814Z,99.00
2017-10-14T17:48:28.447Z,99.60
2017-10-14T17:50:56.347Z,99.60
2017-10-14T17:53:24.126Z,99.90
2017-10-14T17:55:51.980Z,99.90
2017-10-14T17:58:19.936Z,99.90
2017-10-14T18:00:47.808Z,99.90
2017-10-14T18:03:15.676Z,99.90
2017-10-14T18:05:45.358Z,99.90
2017-10-14T18:08:13.142Z,99.90
2017-10-14T18:10:40.919Z,99.90
2017-10-14T18:13:09.487Z,99.90
2017-10-14T18:15:37.539Z,99.90
2017-10-14T18:18:05.322Z,99.90
2017-10-14T18:20:33.271Z,99.90
2017-10-14T18:23:01.481Z,99.90
2017-10-14T18:25:34.061Z,99.90
2017-10-14T18:28:01.930Z,99.90
2017-10-14T18:30:30.423Z,99.90
2017-10-14T18:32:59.781Z,99.90
2017-10-14T18:35:27.614Z,99.90
2017-10-14T18:37:55.523Z,99.90
2017-10-14T18:40:23.399Z,99.90
2017-10-14T18:42:51.292Z,99.90
2017-10-14T18:45:20.079Z,99.90
2017-10-14T18:47:48.609Z,99.90
2017-10-14T18:50:16.492Z,99.90
2017-10-14T18:52:44.419Z,99.90
2017-10-14T18:55:12.334Z,99.90
2017-10-14T18:57:40.222Z,99.90
2017-10-14T19:00:08.969Z,99.90
2017-10-14T19:02:36.870Z,99.90
2017-10-14T19:05:04.810Z,99.90
2017-10-14T19:07:32.698Z,99.90
2017-10-14T19:10:01.435Z,99.90
2017-10-14T19:12:29.938Z,99.90
2017-10-14T19:14:58.063Z,99.90
2017-10-14T19:17:26.617Z,99.90
2017-10-14T19:19:55.673Z,99.90
2017-10-14T19:22:24.368Z,99.90
2017-10-14T19:24:52.263Z,99.90
2017-10-14T19:27:20.209Z,99.90
2017-10-14T19:29:48.185Z,99.90
2017-10-14T19:32:15.949Z,99.90
2017-10-14T19:34:43.910Z,99.90
2017-10-14T19:37:11.767Z,99.90
2017-10-14T19:39:39.686Z,99.90
2017-10-14T19:42:08.425Z,99.90
2017-10-14T19:44:36.412Z,99.90
2017-10-14T19:47:04.368Z,99.90
2017-10-14T19:49:32.655Z,99.90
2017-10-14T19:52:01.265Z,99.90
2017-10-14T19:54:29.231Z,99.90
2017-10-14T19:56:59.233Z,99.90
2017-10-14T19:59:27.183Z,99.90
2017-10-14T20:01:55.003Z,99.90
2017-10-14T20:04:23.647Z,99.90
2017-10-14T20:06:52.236Z,99.90
2017-10-14T20:09:20.187Z,99.90
2017-10-14T20:11:48.112Z,99.90
2017-10-14T20:14:15.948Z,99.90
2017-10-14T20:16:43.802Z,99.90
2017-10-14T20:19:11.763Z,99.90
2017-10-14T20:21:39.635Z,99.90
2017-10-14T20:24:08.132Z,99.90
2017-10-14T20:26:36.023Z,99.90
2017-10-14T20:29:06.724Z,99.90
2017-10-14T20:31:34.589Z,99.90
2017-10-14T20:34:02.455Z,99.90
2017-10-14T20:36:30.330Z,99.90
2017-10-14T20:38:58.291Z,99.90
2017-10-14T20:41:26.257Z,99.90
2017-10-14T20:43:55.527Z,99.90
2017-10-14T20:46:23.470Z,99.90
2017-10-14T20:48:51.497Z,99.90
2017-10-14T20:51:19.354Z,99.90
2017-10-14T20:53:47.313Z,99.90
2017-10-14T20:56:15.275Z,99.90
2017-10-14T20:58:43.348Z,99.90
2017-10-14T21:01:11.236Z,99.90
2017-10-14T21:03:39.241Z,99.90
2017-10-14T21:06:08.081Z,99.90
2017-10-14T21:08:40.979Z,99.90
2017-10-14T21:11:10.483Z,99.90
2017-10-14T21:13:38.242Z,99.90
2017-10-14T21:16:06.827Z,99.90
2017-10-14T21:18:34.698Z,99.90
2017-10-14T21:21:03.593Z,99.90
2017-10-14T21:23:31.769Z,99.90
2017-10-14T21:25:59.711Z,99.90
2017-10-14T21:28:27.679Z,99.90
2017-10-14T21:30:55.564Z,99.90
2017-10-14T21:33:23.322Z,99.90
2017-10-14T21:35:51.131Z,99.90
2017-10-14T21:38:19.651Z,99.90
2017-10-14T21:40:47.852Z,99.90
2017-10-14T21:43:15.628Z,99.90
2017-10-14T21:45:43.562Z,99.90
2017-10-14T21:48:11.449Z,99.90
2017-10-14T21:50:39.400Z,99.90
2017-10-14T21:53:07.367Z,99.90
2017-10-14T21:55:35.457Z,99.90
2017-10-14T21:58:03.234Z,99.90
2017-10-14T22:00:31.283Z,99.90
2017-10-14T22:02:59.265Z,99.90
2017-10-14T22:05:27.127Z,99.90
2017-10-14T22:07:54.897Z,99.90
2017-10-14T22:10:22.973Z,99.90
2017-10-14T22:12:51.120Z,99.90
2017-10-14T22:15:19.293Z,99.90
2017-10-14T22:17:47.136Z,99.90
2017-10-14T22:20:14.900Z,99.90
2017-10-14T22:22:42.702Z,99.90
2017-10-14T22:25:10.659Z,99.90
2017-10-14T22:27:38.415Z,99.90
2017-10-14T22:30:06.344Z,99.90
2017-10-14T22:32:34.899Z,99.90
2017-10-14T22:35:02.868Z,99.90
2017-10-14T22:37:30.635Z,99.90
2017-10-14T22:39:58.620Z,99.90
2017-10-14T22:42:27.302Z,99.90
2017-10-14T22:44:55.988Z,99.90
2017-10-14T22:47:24.949Z,99.90
2017-10-14T22:49:53.122Z,99.90
2017-10-14T22:52:20.922Z,99.90
2017-10-14T22:54:49.557Z,99.90
2017-10-14T22:57:17.329Z,99.90
2017-10-14T22:59:45.394Z,99.90
2017-10-14T23:02:13.162Z,99.90
2017-10-14T23:04:41.699Z,99.90
2017-10-14T23:07:09.605Z,99.90
2017-10-14T23:09:37.476Z,99.90
2017-10-14T23:12:05.400Z,99.90
2017-10-14T23:14:34.231Z,99.90
2017-10-14T23:17:02.095Z,99.90
2017-10-14T23:19:30.302Z,99.90
2017-10-14T23:21:58.238Z,99.90
2017-10-14T23:24:26.857Z,99.90
2017-10-14T23:26:54.642Z,99.90
2017-10-14T23:29:23.190Z,99.90
2017-10-14T23:31:51.046Z,99.90
2017-10-14T23:34:18.840Z,99.90
2017-10-14T23:36:48.377Z,99.90
2017-10-14T23:39:16.377Z,99.90
2017-10-14T23:41:44.242Z,99.90
2017-10-14T23:44:12.131Z,99.90
2017-10-14T23:46:40.106Z,99.90
2017-10-14T23:49:07.958Z,99.90
2017-10-14T23:51:35.833Z,99.90
2017-10-14T23:54:05.397Z,99.90
2017-10-14T23:56:33.186Z,99.90
2017-10-14T23:59:00.951Z,99.90
